sensor_id;sensor_type;location;lat;lon;timestamp;pressure;altitude;pressure_sealevel;temperature;humidity
28630;BME280;15817;42.130;24.762;2023-03-20T00:02:19;100348.97;;;9.75;76.49
28630;BME280;15817;42.130;24.762;2023-03-20T00:04:46;100338.31;;;9.70;76.53
28630;BME280;15817;42.130;24.762;2023-03-20T00:07:15;100329.47;;;9.71;76.65
28630;BME280;15817;42.130;24.762;2023-03-20T00:09:41;100340.97;;;9.72;76.52
28630;BME280;15817;42.130;24.762;2023-03-20T00:12:14;100323.22;;;9.62;76.75
28630;BME280;15817;42.130;24.762;2023-03-20T00:14:43;100321.47;;;9.64;76.46
28630;BME280;15817;42.130;24.762;2023-03-20T00:17:19;100317.06;;;9.64;76.74
28630;BME280;15817;42.130;24.762;2023-03-20T00:19:50;100321.47;;;9.64;76.89
28630;BME280;15817;42.130;24.762;2023-03-20T00:22:16;100317.91;;;9.62;77.21
28630;BME280;15817;42.130;24.762;2023-03-20T00:24:45;100313.47;;;9.61;76.80
28630;BME280;15817;42.130;24.762;2023-03-20T00:27:22;100304.63;;;9.60;76.87
28630;BME280;15817;42.130;24.762;2023-03-20T00:29:48;100308.16;;;9.61;76.71
28630;BME280;15817;42.130;24.762;2023-03-20T00:32:16;100311.69;;;9.54;76.42
28630;BME280;15817;42.130;24.762;2023-03-20T00:34:42;100317.91;;;9.56;76.55
28630;BME280;15817;42.130;24.762;2023-03-20T00:37:09;100302.78;;;9.49;76.61
28630;BME280;15817;42.130;24.762;2023-03-20T00:39:36;100306.31;;;9.46;76.46
28630;BME280;15817;42.130;24.762;2023-03-20T00:42:04;100314.28;;;9.48;76.44
28630;BME280;15817;42.130;24.762;2023-03-20T00:44:33;100300.97;;;9.40;76.36
28630;BME280;15817;42.130;24.762;2023-03-20T00:47:03;100301.84;;;9.37;76.71
28630;BME280;15817;42.130;24.762;2023-03-20T00:49:33;100301.84;;;9.39;77.07
28630;BME280;15817;42.130;24.762;2023-03-20T00:52:00;100308.09;;;9.42;77.34
28630;BME280;15817;42.130;24.762;2023-03-20T00:54:27;100300.13;;;9.42;77.14
28630;BME280;15817;42.130;24.762;2023-03-20T00:59:35;100295.69;;;9.41;77.31
28630;BME280;15817;42.130;24.762;2023-03-20T01:02:05;100290.34;;;9.34;77.07
28630;BME280;15817;42.130;24.762;2023-03-20T01:04:39;100290.34;;;9.34;77.28
28630;BME280;15817;42.130;24.762;2023-03-20T01:07:11;100291.16;;;9.25;77.09
28630;BME280;15817;42.130;24.762;2023-03-20T01:09:38;100296.47;;;9.25;77.11
28630;BME280;15817;42.130;24.762;2023-03-20T01:12:05;100292.91;;;9.25;77.14
28630;BME280;15817;42.130;24.762;2023-03-20T01:14:33;100293.81;;;9.22;76.97
28630;BME280;15817;42.130;24.762;2023-03-20T01:16:59;100284.97;;;9.22;76.85
28630;BME280;15817;42.130;24.762;2023-03-20T01:19:27;100300.00;;;9.24;77.53
28630;BME280;15817;42.130;24.762;2023-03-20T01:21:53;100282.25;;;9.17;77.38
28630;BME280;15817;42.130;24.762;2023-03-20T01:24:25;100287.56;;;9.16;76.85
28630;BME280;15817;42.130;24.762;2023-03-20T01:26:51;100273.38;;;9.12;77.00
28630;BME280;15817;42.130;24.762;2023-03-20T01:29:24;100283.09;;;9.12;77.47
28630;BME280;15817;42.130;24.762;2023-03-20T01:31:52;100270.69;;;9.06;77.76
28630;BME280;15817;42.130;24.762;2023-03-20T01:34:21;100273.38;;;9.07;77.86
28630;BME280;15817;42.130;24.762;2023-03-20T01:36:56;100281.28;;;9.04;77.51
28630;BME280;15817;42.130;24.762;2023-03-20T01:39:34;100283.09;;;9.07;77.56
28630;BME280;15817;42.130;24.762;2023-03-20T01:42:07;100272.41;;;8.96;77.24
28630;BME280;15817;42.130;24.762;2023-03-20T01:44:36;100281.28;;;9.03;77.41
28630;BME280;15817;42.130;24.762;2023-03-20T01:47:13;100275.06;;;8.96;77.68
28630;BME280;15817;42.130;24.762;2023-03-20T01:52:41;100274.13;;;8.93;78.24
28630;BME280;15817;42.130;24.762;2023-03-20T01:55:09;100266.16;;;8.90;78.24
28630;BME280;15817;42.130;24.762;2023-03-20T01:57:40;100259.94;;;8.83;77.32
28630;BME280;15817;42.130;24.762;2023-03-20T02:00:12;100258.13;;;8.79;77.09
28630;BME280;15817;42.130;24.762;2023-03-20T02:02:49;100263.38;;;8.73;76.51
28630;BME280;15817;42.130;24.762;2023-03-20T02:05:38;100268.66;;;8.70;76.58
28630;BME280;15817;42.130;24.762;2023-03-20T02:08:14;100265.09;;;8.65;77.53
28630;BME280;15817;42.130;24.762;2023-03-20T02:10:45;100272.16;;;8.64;77.64
28630;BME280;15817;42.130;24.762;2023-03-20T02:13:35;100270.34;;;8.59;77.30
28630;BME280;15817;42.130;24.762;2023-03-20T02:16:05;100264.09;;;8.52;77.82
28630;BME280;15817;42.130;24.762;2023-03-20T02:34:45;100272.88;;;8.45;77.26
28630;BME280;15817;42.130;24.762;2023-03-20T02:37:51;100267.56;;;8.42;77.68
28630;BME280;15817;42.130;24.762;2023-03-20T02:47:11;100250.53;;;8.23;77.11
28630;BME280;15817;42.130;24.762;2023-03-20T02:56:34;100265.47;;;8.14;76.41
28630;BME280;15817;42.130;24.762;2023-03-20T02:59:52;100260.97;;;8.05;75.25
28630;BME280;15817;42.130;24.762;2023-03-20T03:02:55;100269.75;;;8.03;76.24
28630;BME280;15817;42.130;24.762;2023-03-20T03:05:39;100260.00;;;7.98;74.96
28630;BME280;15817;42.130;24.762;2023-03-20T03:08:11;100262.59;;;7.92;74.97
28630;BME280;15817;42.130;24.762;2023-03-20T03:10:44;100260.78;;;7.90;75.06
28630;BME280;15817;42.130;24.762;2023-03-20T03:13:17;100256.31;;;7.83;75.01
28630;BME280;15817;42.130;24.762;2023-03-20T03:15:47;100258.97;;;7.84;75.09
28630;BME280;15817;42.130;24.762;2023-03-20T03:18:19;100247.44;;;7.79;75.15
28630;BME280;15817;42.130;24.762;2023-03-20T03:20:49;100251.00;;;7.81;75.61
28630;BME280;15817;42.130;24.762;2023-03-20T03:23:32;100246.59;;;7.82;75.65
28630;BME280;15817;42.130;24.762;2023-03-20T03:26:01;100253.69;;;7.84;75.72
28630;BME280;15817;42.130;24.762;2023-03-20T03:28:33;100259.84;;;7.86;76.04
28630;BME280;15817;42.130;24.762;2023-03-20T03:31:10;100249.25;;;7.83;76.04
28630;BME280;15817;42.130;24.762;2023-03-20T03:33:43;100257.19;;;7.85;75.95
28630;BME280;15817;42.130;24.762;2023-03-20T03:39:02;100255.34;;;7.76;76.38
28630;BME280;15817;42.130;24.762;2023-03-20T03:41:49;100255.28;;;7.73;77.16
28630;BME280;15817;42.130;24.762;2023-03-20T03:44:21;100261.56;;;7.80;77.39
28630;BME280;15817;42.130;24.762;2023-03-20T03:47:07;100249.09;;;7.70;76.98
28630;BME280;15817;42.130;24.762;2023-03-20T03:49:43;100252.53;;;7.64;76.59
28630;BME280;15817;42.130;24.762;2023-03-20T03:52:15;100250.63;;;7.52;77.26
28630;BME280;15817;42.130;24.762;2023-03-20T03:54:49;100247.09;;;7.52;77.53
28630;BME280;15817;42.130;24.762;2023-03-20T04:00:05;100255.91;;;7.49;77.59
28630;BME280;15817;42.130;24.762;2023-03-20T04:02:40;100262.09;;;7.51;77.19
28630;BME280;15817;42.130;24.762;2023-03-20T04:05:11;100257.63;;;7.46;77.06
28630;BME280;15817;42.130;24.762;2023-03-20T04:07:38;100264.75;;;7.50;77.28
28630;BME280;15817;42.130;24.762;2023-03-20T04:10:08;100256.69;;;7.42;77.06
28630;BME280;15817;42.130;24.762;2023-03-20T04:12:42;100255.88;;;7.46;77.41
28630;BME280;15817;42.130;24.762;2023-03-20T04:15:11;100262.97;;;7.52;78.26
28630;BME280;15817;42.130;24.762;2023-03-20T04:17:38;100256.88;;;7.56;78.42
28630;BME280;15817;42.130;24.762;2023-03-20T04:20:08;100256.88;;;7.57;78.50
28630;BME280;15817;42.130;24.762;2023-03-20T04:22:38;100255.09;;;7.55;78.71
28630;BME280;15817;42.130;24.762;2023-03-20T04:25:19;100265.66;;;7.53;78.86
28630;BME280;15817;42.130;24.762;2023-03-20T04:28:00;100253.22;;;7.46;78.87
28630;BME280;15817;42.130;24.762;2023-03-20T04:30:41;100249.59;;;7.40;79.25
28630;BME280;15817;42.130;24.762;2023-03-20T04:33:16;100255.81;;;7.43;79.15
28630;BME280;15817;42.130;24.762;2023-03-20T04:36:05;100253.94;;;7.33;79.40
28630;BME280;15817;42.130;24.762;2023-03-20T04:38:31;100255.53;;;7.22;79.72
28630;BME280;15817;42.130;24.762;2023-03-20T04:41:02;100249.34;;;7.20;79.83
28630;BME280;15817;42.130;24.762;2023-03-20T04:44:08;100261.81;;;7.30;80.02
28630;BME280;15817;42.130;24.762;2023-03-20T04:46:37;100256.50;;;7.28;79.74
28630;BME280;15817;42.130;24.762;2023-03-20T04:49:11;100261.81;;;7.30;79.63
28630;BME280;15817;42.130;24.762;2023-03-20T04:51:37;100252.97;;;7.28;79.67
28630;BME280;15817;42.130;24.762;2023-03-20T04:54:12;100260.94;;;7.30;79.42
28630;BME280;15817;42.130;24.762;2023-03-20T04:56:41;100253.81;;;7.27;79.34
28630;BME280;15817;42.130;24.762;2023-03-20T04:59:17;100269.75;;;7.30;80.00
28630;BME280;15817;42.130;24.762;2023-03-20T05:01:43;100253.84;;;7.25;79.68
28630;BME280;15817;42.130;24.762;2023-03-20T05:04:09;100266.19;;;7.26;79.69
28630;BME280;15817;42.130;24.762;2023-03-20T05:06:35;100262.66;;;7.26;80.00
28630;BME280;15817;42.130;24.762;2023-03-20T05:09:14;100261.72;;;7.22;80.27
28630;BME280;15817;42.130;24.762;2023-03-20T05:12:09;100273.25;;;7.26;80.09
28630;BME280;15817;42.130;24.762;2023-03-20T05:14:57;100264.34;;;7.21;80.15
28630;BME280;15817;42.130;24.762;2023-03-20T05:17:48;100267.06;;;7.25;80.36
28630;BME280;15817;42.130;24.762;2023-03-20T05:20:48;100270.66;;;7.31;80.57
28630;BME280;15817;42.130;24.762;2023-03-20T05:23:28;100278.69;;;7.37;79.98
28630;BME280;15817;42.130;24.762;2023-03-20T05:30:09;100263.59;;;7.31;80.40
28630;BME280;15817;42.130;24.762;2023-03-20T05:33:27;100271.59;;;7.36;80.10
28630;BME280;15817;42.130;24.762;2023-03-20T05:36:32;100262.81;;;7.37;80.45
28630;BME280;15817;42.130;24.762;2023-03-20T05:39:16;100275.19;;;7.41;80.44
28630;BME280;15817;42.130;24.762;2023-03-20T05:41:56;100260.09;;;7.32;80.43
28630;BME280;15817;42.130;24.762;2023-03-20T05:44:33;100267.06;;;7.27;79.89
28630;BME280;15817;42.130;24.762;2023-03-20T05:47:30;100275.00;;;7.27;79.85
28630;BME280;15817;42.130;24.762;2023-03-20T05:50:08;100265.19;;;7.18;79.90
28630;BME280;15817;42.130;24.762;2023-03-20T05:53:06;100268.88;;;7.30;80.15
28630;BME280;15817;42.130;24.762;2023-03-20T05:55:47;100269.84;;;7.35;80.24
28630;BME280;15817;42.130;24.762;2023-03-20T05:58:33;100271.66;;;7.40;80.14
28630;BME280;15817;42.130;24.762;2023-03-20T06:01:25;100269.94;;;7.44;81.00
28630;BME280;15817;42.130;24.762;2023-03-20T06:04:08;100270.91;;;7.52;80.79
28630;BME280;15817;42.130;24.762;2023-03-20T06:07:04;100264.88;;;7.60;80.62
28630;BME280;15817;42.130;24.762;2023-03-20T06:10:29;100266.75;;;7.69;80.30
28630;BME280;15817;42.130;24.762;2023-03-20T06:13:20;100256.06;;;7.63;80.33
28630;BME280;15817;42.130;24.762;2023-03-20T06:16:38;100275.63;;;7.73;80.59
28630;BME280;15817;42.130;24.762;2023-03-20T06:19:49;100265.94;;;7.78;80.51
28630;BME280;15817;42.130;24.762;2023-03-20T06:22:44;100266.88;;;7.81;80.92
28630;BME280;15817;42.130;24.762;2023-03-20T06:26:00;100270.47;;;7.88;81.08
28630;BME280;15817;42.130;24.762;2023-03-20T06:28:41;100267.00;;;7.92;80.94
28630;BME280;15817;42.130;24.762;2023-03-20T06:31:19;100275.00;;;7.95;81.10
28630;BME280;15817;42.130;24.762;2023-03-20T06:33:45;100260.81;;;7.91;80.72
28630;BME280;15817;42.130;24.762;2023-03-20T06:36:27;100267.03;;;7.93;80.90
28630;BME280;15817;42.130;24.762;2023-03-20T06:39:10;100256.44;;;7.95;81.10
28630;BME280;15817;42.130;24.762;2023-03-20T06:41:49;100263.53;;;7.99;81.13
28630;BME280;15817;42.130;24.762;2023-03-20T06:44:29;100261.84;;;8.04;80.90
28630;BME280;15817;42.130;24.762;2023-03-20T06:47:11;100264.53;;;8.10;80.77
28630;BME280;15817;42.130;24.762;2023-03-20T06:52:38;100250.50;;;8.20;81.14
28630;BME280;15817;42.130;24.762;2023-03-20T06:55:25;100258.50;;;8.25;80.76
28630;BME280;15817;42.130;24.762;2023-03-20T06:57:51;100252.34;;;8.26;80.76
28630;BME280;15817;42.130;24.762;2023-03-20T07:00:23;100254.19;;;8.31;81.17
28630;BME280;15817;42.130;24.762;2023-03-20T07:02:54;100253.41;;;8.42;81.03
28630;BME280;15817;42.130;24.762;2023-03-20T07:06:02;100257.09;;;8.59;80.37
28630;BME280;15817;42.130;24.762;2023-03-20T07:11:41;100252.81;;;8.79;79.71
28630;BME280;15817;42.130;24.762;2023-03-20T07:14:10;100244.06;;;8.91;79.46
28630;BME280;15817;42.130;24.762;2023-03-20T07:16:56;100254.81;;;9.15;78.94
28630;BME280;15817;42.130;24.762;2023-03-20T07:19:24;100255.81;;;9.35;78.12
28630;BME280;15817;42.130;24.762;2023-03-20T07:21:59;100247.94;;;9.51;77.83
28630;BME280;15817;42.130;24.762;2023-03-20T07:24:34;100248.88;;;9.62;76.53
28630;BME280;15817;42.130;24.762;2023-03-20T07:27:11;100242.75;;;9.87;75.87
28630;BME280;15817;42.130;24.762;2023-03-20T07:29:49;100245.47;;;10.10;74.29
28630;BME280;15817;42.130;24.762;2023-03-20T07:32:18;100243.75;;;10.30;73.17
28630;BME280;15817;42.130;24.762;2023-03-20T07:34:53;100241.09;;;10.50;72.51
28630;BME280;15817;42.130;24.762;2023-03-20T07:37:23;100247.34;;;10.67;71.78
28630;BME280;15817;42.130;24.762;2023-03-20T07:40:00;100232.25;;;10.78;70.52
28630;BME280;15817;42.130;24.762;2023-03-20T07:42:37;100231.34;;;10.93;70.15
28630;BME280;15817;42.130;24.762;2023-03-20T07:45:36;100226.88;;;11.07;68.79
28630;BME280;15817;42.130;24.762;2023-03-20T07:48:38;100232.16;;;11.29;68.61
28630;BME280;15817;42.130;24.762;2023-03-20T07:51:35;100228.56;;;11.42;67.89
28630;BME280;15817;42.130;24.762;2023-03-20T07:54:26;100235.56;;;11.64;67.07
28630;BME280;15817;42.130;24.762;2023-03-20T08:00:00;100239.78;;;12.12;66.62
28630;BME280;15817;42.130;24.762;2023-03-20T08:03:22;100241.53;;;12.19;64.66
28630;BME280;15817;42.130;24.762;2023-03-20T08:10:01;100229.00;;;12.27;64.44
28630;BME280;15817;42.130;24.762;2023-03-20T08:13:07;100214.69;;;12.42;64.36
28630;BME280;15817;42.130;24.762;2023-03-20T08:16:02;100217.38;;;12.38;62.70
28630;BME280;15817;42.130;24.762;2023-03-20T08:18:50;100219.97;;;12.47;62.89
28630;BME280;15817;42.130;24.762;2023-03-20T08:21:34;100219.72;;;12.79;62.12
28630;BME280;15817;42.130;24.762;2023-03-20T08:24:37;100221.25;;;13.02;61.36
28630;BME280;15817;42.130;24.762;2023-03-20T08:27:33;100224.75;;;13.04;60.87
28630;BME280;15817;42.130;24.762;2023-03-20T08:30:11;100215.81;;;13.12;61.18
28630;BME280;15817;42.130;24.762;2023-03-20T08:32:50;100212.22;;;13.16;61.39
28630;BME280;15817;42.130;24.762;2023-03-20T08:35:23;100213.72;;;13.39;60.77
28630;BME280;15817;42.130;24.762;2023-03-20T08:37:57;100221.53;;;13.58;60.51
28630;BME280;15817;42.130;24.762;2023-03-20T08:40:23;100208.94;;;13.67;60.72
28630;BME280;15817;42.130;24.762;2023-03-20T08:42:58;100218.50;;;13.85;61.04
28630;BME280;15817;42.130;24.762;2023-03-20T08:45:24;100218.41;;;13.93;58.99
28630;BME280;15817;42.130;24.762;2023-03-20T08:47:53;100203.25;;;13.93;59.23
28630;BME280;15817;42.130;24.762;2023-03-20T08:50:19;100209.34;;;14.03;58.97
28630;BME280;15817;42.130;24.762;2023-03-20T08:52:45;100197.75;;;14.02;58.68
28630;BME280;15817;42.130;24.762;2023-03-20T08:55:14;100189.63;;;14.08;58.51
28630;BME280;15817;42.130;24.762;2023-03-20T08:57:41;100201.13;;;14.15;57.91
28630;BME280;15817;42.130;24.762;2023-03-20T09:00:08;100200.09;;;14.25;58.52
28630;BME280;15817;42.130;24.762;2023-03-20T09:02:37;100203.47;;;14.36;58.34
28630;BME280;15817;42.130;24.762;2023-03-20T09:05:06;100190.78;;;14.51;58.08
28630;BME280;15817;42.130;24.762;2023-03-20T09:07:35;100194.53;;;14.37;57.71
28630;BME280;15817;42.130;24.762;2023-03-20T09:10:14;100182.75;;;14.51;57.60
28630;BME280;15817;42.130;24.762;2023-03-20T09:12:49;100176.31;;;14.62;56.65
28630;BME280;15817;42.130;24.762;2023-03-20T09:15:26;100179.72;;;14.72;56.24
28630;BME280;15817;42.130;24.762;2023-03-20T09:18:10;100183.03;;;14.86;57.58
28630;BME280;15817;42.130;24.762;2023-03-20T09:20:46;100185.69;;;14.88;55.48
28630;BME280;15817;42.130;24.762;2023-03-20T09:23:32;100173.94;;;14.95;56.59
28630;BME280;15817;42.130;24.762;2023-03-20T09:26:04;100178.09;;;15.11;55.54
28630;BME280;15817;42.130;24.762;2023-03-20T09:28:37;100174.31;;;15.21;55.29
28630;BME280;15817;42.130;24.762;2023-03-20T09:31:32;100167.84;;;15.31;54.46
28630;BME280;15817;42.130;24.762;2023-03-20T09:34:25;100172.13;;;15.41;54.62
28630;BME280;15817;42.130;24.762;2023-03-20T09:37:01;100175.56;;;15.46;54.08
28630;BME280;15817;42.130;24.762;2023-03-20T09:39:39;100167.38;;;15.54;53.58
28630;BME280;15817;42.130;24.762;2023-03-20T09:42:56;100162.03;;;15.52;54.24
28630;BME280;15817;42.130;24.762;2023-03-20T09:46:13;100144.88;;;15.63;54.73
28630;BME280;15817;42.130;24.762;2023-03-20T09:49:06;100149.28;;;15.65;54.55
28630;BME280;15817;42.130;24.762;2023-03-20T09:51:57;100143.50;;;15.83;53.76
28630;BME280;15817;42.130;24.762;2023-03-20T09:54:32;100145.94;;;15.94;54.08
28630;BME280;15817;42.130;24.762;2023-03-20T09:57:03;100139.50;;;16.03;54.43
28630;BME280;15817;42.130;24.762;2023-03-20T09:59:35;100133.94;;;16.10;54.22
28630;BME280;15817;42.130;24.762;2023-03-20T10:02:10;100121.38;;;16.12;53.96
28630;BME280;15817;42.130;24.762;2023-03-20T10:04:54;100126.50;;;16.21;53.81
28630;BME280;15817;42.130;24.762;2023-03-20T10:08:09;100128.47;;;16.15;53.38
28630;BME280;15817;42.130;24.762;2023-03-20T10:16:25;100108.56;;;16.23;52.86
28630;BME280;15817;42.130;24.762;2023-03-20T10:19:29;100101.75;;;16.09;53.32
28630;BME280;15817;42.130;24.762;2023-03-20T10:40:24;100080.75;;;16.60;51.38
28630;BME280;15817;42.130;24.762;2023-03-20T10:42:55;100061.06;;;16.59;52.34
28630;BME280;15817;42.130;24.762;2023-03-20T10:52:01;100036.81;;;16.95;50.79
28630;BME280;15817;42.130;24.762;2023-03-20T10:55:10;100029.72;;;16.92;50.38
28630;BME280;15817;42.130;24.762;2023-03-20T11:00:36;100030.88;;;17.13;49.62
28630;BME280;15817;42.130;24.762;2023-03-20T11:03:04;100027.06;;;17.20;48.93
28630;BME280;15817;42.130;24.762;2023-03-20T11:05:38;100019.63;;;17.30;48.40
28630;BME280;15817;42.130;24.762;2023-03-20T11:08:13;100019.09;;;17.47;47.82
28630;BME280;15817;42.130;24.762;2023-03-20T11:11:03;100004.94;;;17.42;48.07
28630;BME280;15817;42.130;24.762;2023-03-20T11:13:53;100006.75;;;17.41;48.31
28630;BME280;15817;42.130;24.762;2023-03-20T11:17:05;100004.97;;;17.40;47.22
28630;BME280;15817;42.130;24.762;2023-03-20T11:23:23;99988.06;;;17.36;46.30
28630;BME280;15817;42.130;24.762;2023-03-20T11:26:49;99977.00;;;17.46;46.96
28630;BME280;15817;42.130;24.762;2023-03-20T11:29:42;99967.75;;;17.54;46.56
28630;BME280;15817;42.130;24.762;2023-03-20T11:32:25;99963.88;;;17.64;46.38
28630;BME280;15817;42.130;24.762;2023-03-20T11:34:57;99960.03;;;17.71;46.81
28630;BME280;15817;42.130;24.762;2023-03-20T11:37:49;99956.38;;;17.74;46.31
28630;BME280;15817;42.130;24.762;2023-03-20T11:40:32;99956.19;;;17.79;46.07
28630;BME280;15817;42.130;24.762;2023-03-20T11:46:23;99938.97;;;17.84;45.11
28630;BME280;15817;42.130;24.762;2023-03-20T11:49:22;99940.09;;;17.77;46.15
28630;BME280;15817;42.130;24.762;2023-03-20T11:52:11;99930.88;;;17.86;46.79
28630;BME280;15817;42.130;24.762;2023-03-20T11:54:49;99922.75;;;17.87;46.14
28630;BME280;15817;42.130;24.762;2023-03-20T11:57:33;99922.50;;;17.93;45.62
28630;BME280;15817;42.130;24.762;2023-03-20T12:00:17;99927.00;;;17.93;44.93
28630;BME280;15817;42.130;24.762;2023-03-20T12:03:03;99926.31;;;17.88;44.80
28630;BME280;15817;42.130;24.762;2023-03-20T12:09:32;99903.97;;;17.86;44.46
28630;BME280;15817;42.130;24.762;2023-03-20T12:12:49;99907.47;;;17.88;44.44
28630;BME280;15817;42.130;24.762;2023-03-20T12:15:30;99904.97;;;17.82;43.72
28630;BME280;15817;42.130;24.762;2023-03-20T12:18:04;99887.06;;;17.81;44.49
28630;BME280;15817;42.130;24.762;2023-03-20T13:19:32;99836.09;;;18.01;43.63
28630;BME280;15817;42.130;24.762;2023-03-20T13:44:47;99805.22;;;17.88;43.54
28630;BME280;15817;42.130;24.762;2023-03-20T13:48:44;99796.31;;;17.86;43.22
28630;BME280;15817;42.130;24.762;2023-03-20T13:58:36;99795.59;;;17.81;43.29
28630;BME280;15817;42.130;24.762;2023-03-20T14:01:58;99797.34;;;17.82;41.96
28630;BME280;15817;42.130;24.762;2023-03-20T14:05:50;99780.13;;;17.87;41.94
28630;BME280;15817;42.130;24.762;2023-03-20T14:08:37;99781.16;;;17.83;41.54
28630;BME280;15817;42.130;24.762;2023-03-20T14:14:30;99772.50;;;17.75;42.83
28630;BME280;15817;42.130;24.762;2023-03-20T14:40:21;99729.41;;;17.77;44.44
28630;BME280;15817;42.130;24.762;2023-03-20T15:16:40;99728.22;;;17.59;43.46
28630;BME280;15817;42.130;24.762;2023-03-20T15:20:29;99718.84;;;17.46;43.96
28630;BME280;15817;42.130;24.762;2023-03-20T15:23:50;99721.63;;;17.43;44.35
28630;BME280;15817;42.130;24.762;2023-03-20T15:27:21;99721.03;;;17.34;45.15
28630;BME280;15817;42.130;24.762;2023-03-20T15:30:16;99726.31;;;17.37;44.63
28630;BME280;15817;42.130;24.762;2023-03-20T15:32:56;99720.16;;;17.34;44.55
28630;BME280;15817;42.130;24.762;2023-03-20T15:35:42;99718.47;;;17.31;44.23
28630;BME280;15817;42.130;24.762;2023-03-20T15:44:55;99720.59;;;17.22;44.71
28630;BME280;15817;42.130;24.762;2023-03-20T15:47:47;99719.84;;;17.18;44.04
28630;BME280;15817;42.130;24.762;2023-03-20T15:50:48;99713.66;;;17.16;43.74
28630;BME280;15817;42.130;24.762;2023-03-20T15:53:40;99709.28;;;17.12;44.19
28630;BME280;15817;42.130;24.762;2023-03-20T15:56:41;99723.63;;;17.13;44.38
28630;BME280;15817;42.130;24.762;2023-03-20T15:59:44;99716.84;;;17.01;44.52
28630;BME280;15817;42.130;24.762;2023-03-20T16:02:35;99718.66;;;17.00;44.77
28630;BME280;15817;42.130;24.762;2023-03-20T16:05:18;99724.97;;;16.99;44.51
28630;BME280;15817;42.130;24.762;2023-03-20T16:07:49;99725.84;;;17.00;44.52
28630;BME280;15817;42.130;24.762;2023-03-20T16:10:29;99739.19;;;17.03;44.48
28630;BME280;15817;42.130;24.762;2023-03-20T16:13:22;99733.31;;;16.92;44.49
28630;BME280;15817;42.130;24.762;2023-03-20T16:16:20;99736.19;;;16.86;44.89
28630;BME280;15817;42.130;24.762;2023-03-20T16:19:04;99739.97;;;16.80;45.26
28630;BME280;15817;42.130;24.762;2023-03-20T16:22:00;99734.69;;;16.77;45.31
28630;BME280;15817;42.130;24.762;2023-03-20T16:32:54;99745.22;;;16.55;46.52
28630;BME280;15817;42.130;24.762;2023-03-20T16:36:11;99751.50;;;16.54;46.81
28630;BME280;15817;42.130;24.762;2023-03-20T16:41:43;99758.84;;;16.49;47.32
28630;BME280;15817;42.130;24.762;2023-03-20T16:44:20;99758.25;;;16.40;47.52
28630;BME280;15817;42.130;24.762;2023-03-20T16:47:32;99751.22;;;16.36;48.11
28630;BME280;15817;42.130;24.762;2023-03-20T16:50:29;99755.81;;;16.32;48.43
28630;BME280;15817;42.130;24.762;2023-03-20T16:53:20;99752.38;;;16.27;48.83
28630;BME280;15817;42.130;24.762;2023-03-20T16:56:28;99756.94;;;16.25;48.93
28630;BME280;15817;42.130;24.762;2023-03-20T17:00:04;99759.75;;;16.20;49.37
28630;BME280;15817;42.130;24.762;2023-03-20T17:02:38;99763.41;;;16.18;49.39
28630;BME280;15817;42.130;24.762;2023-03-20T17:05:21;99768.00;;;16.14;49.59
28630;BME280;15817;42.130;24.762;2023-03-20T17:11:59;99769.00;;;16.10;49.88
28630;BME280;15817;42.130;24.762;2023-03-20T17:14:38;99762.88;;;16.05;49.71
28630;BME280;15817;42.130;24.762;2023-03-20T17:17:15;99778.16;;;16.03;50.08
28630;BME280;15817;42.130;24.762;2023-03-20T17:19:47;99777.38;;;16.00;50.35
28630;BME280;15817;42.130;24.762;2023-03-20T17:22:20;99799.75;;;15.99;50.71
28630;BME280;15817;42.130;24.762;2023-03-20T17:28:51;99803.59;;;15.90;51.27
28630;BME280;15817;42.130;24.762;2023-03-20T17:32:19;99797.53;;;15.82;51.36
28630;BME280;15817;42.130;24.762;2023-03-20T17:39:17;99810.22;;;15.77;51.56
28630;BME280;15817;42.130;24.762;2023-03-20T17:42:02;99800.63;;;15.68;52.00
28630;BME280;15817;42.130;24.762;2023-03-20T17:44:58;99794.63;;;15.58;52.36
28630;BME280;15817;42.130;24.762;2023-03-20T17:55:10;99786.94;;;15.45;53.32
28630;BME280;15817;42.130;24.762;2023-03-20T20:30:39;99862.19;;;13.75;67.92
28630;BME280;15817;42.130;24.762;2023-03-20T20:37:02;99867.66;;;13.69;68.72
28630;BME280;15817;42.130;24.762;2023-03-20T21:05:29;99863.63;;;13.47;71.40
28630;BME280;15817;42.130;24.762;2023-03-20T21:08:01;99864.53;;;13.46;71.71
28630;BME280;15817;42.130;24.762;2023-03-20T21:33:24;99860.38;;;13.28;73.14
28630;BME280;15817;42.130;24.762;2023-03-20T23:25:30;99870.44;;;12.51;67.88
28630;BME280;15817;42.130;24.762;2023-03-20T23:28:51;99872.19;;;12.54;67.89
